createdAt,value
2022-12-23T00:01:26.933Z,68.39
2022-12-23T00:03:57.702Z,68.36
2022-12-23T00:06:24.436Z,68.32
2022-12-23T00:08:58.640Z,68.72
2022-12-23T00:11:26.762Z,68.45
2022-12-23T00:14:18.197Z,68.06
2022-12-23T00:16:46.990Z,68.24
2022-12-23T00:19:13.689Z,68.12
2022-12-23T00:21:40.339Z,68.04
2022-12-23T00:24:07.062Z,68.01
2022-12-23T00:26:33.670Z,68.50
2022-12-23T00:29:00.307Z,67.92
2022-12-23T00:31:26.920Z,68.23
2022-12-23T00:33:54.390Z,68.60
2022-12-23T00:36:25.609Z,68.41
2022-12-23T00:39:10.895Z,68.80
2022-12-23T00:41:56.288Z,68.86
2022-12-23T00:44:23.098Z,68.32
2022-12-23T00:46:50.094Z,68.41
2022-12-23T00:49:36.976Z,68.44
2022-12-23T00:52:05.329Z,69.66
2022-12-23T00:54:32.128Z,69.64
2022-12-23T00:56:59.316Z,69.99
2022-12-23T00:59:25.921Z,69.76
2022-12-23T01:02:11.138Z,69.22
2022-12-23T01:04:56.590Z,69.74
2022-12-23T01:07:24.050Z,69.31
2022-12-23T01:09:50.897Z,68.98
2022-12-23T01:12:17.640Z,68.88
2022-12-23T01:14:44.318Z,69.36
2022-12-23T01:17:11.060Z,70.21
2022-12-23T01:19:37.881Z,70.39
2022-12-23T01:22:04.536Z,69.91
2022-12-23T01:24:32.562Z,69.34
2022-12-23T01:26:59.484Z,69.39
2022-12-23T01:29:26.345Z,69.69
2022-12-23T01:31:53.001Z,70.22
2022-12-23T01:34:19.767Z,69.83
2022-12-23T01:36:46.464Z,69.42
2022-12-23T01:39:13.064Z,70.56
2022-12-23T01:41:58.143Z,73.43
2022-12-23T01:45:00.881Z,71.54
2022-12-23T01:47:30.132Z,71.06
2022-12-23T01:50:24.085Z,70.93
2022-12-23T01:53:06.860Z,70.61
2022-12-23T01:55:36.778Z,70.05
2022-12-23T01:58:18.239Z,70.58
2022-12-23T02:01:03.898Z,71.91
2022-12-23T02:03:42.456Z,71.91
2022-12-23T02:06:46.223Z,71.96
2022-12-23T02:09:21.662Z,70.96
2022-12-23T02:12:09.469Z,71.35
2022-12-23T02:15:10.769Z,71.34
2022-12-23T02:18:00.535Z,70.95
2022-12-23T02:21:01.389Z,71.11
2022-12-23T02:24:17.740Z,70.86
2022-12-23T02:27:01.303Z,71.44
2022-12-23T02:30:15.859Z,72.27
2022-12-23T02:32:54.351Z,71.98
2022-12-23T02:35:48.872Z,72.91
2022-12-23T02:38:26.623Z,75.70
2022-12-23T02:41:05.334Z,74.27
2022-12-23T02:43:42.034Z,72.85
2022-12-23T02:46:36.425Z,72.71
2022-12-23T02:49:18.156Z,73.00
2022-12-23T02:51:50.211Z,73.70
2022-12-23T02:54:24.886Z,74.92
2022-12-23T02:56:54.087Z,75.47
2022-12-23T02:59:25.772Z,73.44
2022-12-23T03:01:54.100Z,73.08
2022-12-23T03:04:21.454Z,72.87
2022-12-23T03:06:52.436Z,73.22
2022-12-23T03:09:44.276Z,72.90
2022-12-23T03:12:30.847Z,73.64
2022-12-23T03:15:15.816Z,73.00
2022-12-23T03:17:56.213Z,72.38
2022-12-23T03:20:30.800Z,72.16
2022-12-23T03:23:15.951Z,72.05
2022-12-23T03:25:53.725Z,71.96
2022-12-23T03:28:46.103Z,72.12
2022-12-23T03:31:18.706Z,72.07
2022-12-23T03:33:49.631Z,71.96
2022-12-23T03:36:22.374Z,71.77
2022-12-23T03:38:52.054Z,71.56
2022-12-23T03:41:36.269Z,72.18
2022-12-23T03:44:13.568Z,72.37
2022-12-23T03:46:55.035Z,72.60
2022-12-23T03:49:30.435Z,73.20
2022-12-23T03:52:25.656Z,72.89
2022-12-23T03:54:55.236Z,72.82
2022-12-23T03:57:52.373Z,73.12
2022-12-23T04:00:19.132Z,73.80
2022-12-23T04:03:09.511Z,73.31
2022-12-23T04:05:53.784Z,74.04
2022-12-23T04:08:28.895Z,73.93
2022-12-23T04:10:56.388Z,76.39
2022-12-23T04:13:22.943Z,76.23
2022-12-23T04:15:49.779Z,77.61
2022-12-23T04:18:16.537Z,76.51
2022-12-23T04:20:43.216Z,75.22
2022-12-23T04:23:10.093Z,75.03
2022-12-23T04:25:36.912Z,75.73
2022-12-23T04:28:03.662Z,75.17
2022-12-23T04:30:34.342Z,75.47
2022-12-23T04:33:02.086Z,76.34
2022-12-23T04:35:28.956Z,76.49
2022-12-23T04:37:55.630Z,76.31
2022-12-23T04:40:22.472Z,75.44
2022-12-23T04:42:49.100Z,74.33
2022-12-23T04:45:15.904Z,74.83
2022-12-23T04:47:42.529Z,74.50
2022-12-23T04:50:13.827Z,74.42
2022-12-23T04:52:40.659Z,74.16
2022-12-23T04:55:07.983Z,74.61
2022-12-23T04:57:34.685Z,74.60
2022-12-23T05:00:01.339Z,74.30
2022-12-23T05:02:28.109Z,75.41
2022-12-23T05:04:54.819Z,74.99
2022-12-23T05:07:21.418Z,76.84
2022-12-23T05:09:48.035Z,78.96
2022-12-23T05:12:14.651Z,77.80
2022-12-23T05:14:41.285Z,78.10
2022-12-23T05:17:08.228Z,77.21
2022-12-23T05:19:35.016Z,79.42
2022-12-23T05:22:01.612Z,82.52
2022-12-23T05:24:28.242Z,82.69
2022-12-23T05:26:59.756Z,82.74
2022-12-23T05:29:26.872Z,81.22
2022-12-23T05:31:53.561Z,82.25
2022-12-23T05:34:20.256Z,84.06
2022-12-23T05:36:46.852Z,83.08
2022-12-23T05:39:13.584Z,81.91
2022-12-23T05:41:40.247Z,82.33
2022-12-23T05:44:06.849Z,83.11
2022-12-23T05:46:33.798Z,85.13
2022-12-23T05:49:00.528Z,86.82
2022-12-23T05:51:27.285Z,87.59
2022-12-23T05:53:53.956Z,87.72
2022-12-23T05:56:20.587Z,88.53
2022-12-23T05:58:47.178Z,88.62
2022-12-23T06:01:14.318Z,87.64
2022-12-23T06:03:41.089Z,86.42
2022-12-23T06:06:08.397Z,86.21
2022-12-23T06:08:35.179Z,87.17
2022-12-23T06:11:05.439Z,88.39
2022-12-23T06:13:32.092Z,88.92
2022-12-23T06:15:58.715Z,88.62
2022-12-23T06:18:25.445Z,89.06
2022-12-23T06:20:52.062Z,89.11
2022-12-23T06:23:18.693Z,89.57
2022-12-23T06:25:45.295Z,89.33
2022-12-23T06:28:11.964Z,88.99
2022-12-23T06:30:38.608Z,89.49
2022-12-23T06:33:05.294Z,89.93
2022-12-23T06:35:31.924Z,89.57
2022-12-23T06:37:58.583Z,89.76
2022-12-23T06:40:25.251Z,89.36
2022-12-23T06:42:51.989Z,89.19
2022-12-23T06:45:18.601Z,88.62
2022-12-23T06:47:45.338Z,88.53
2022-12-23T06:50:12.036Z,88.76
2022-12-23T06:52:38.690Z,87.99
2022-12-23T06:55:05.734Z,87.88
2022-12-23T06:57:32.379Z,88.68
2022-12-23T06:59:58.973Z,88.62
2022-12-23T07:02:25.697Z,87.85
2022-12-23T07:04:52.407Z,88.21
2022-12-23T07:07:19.029Z,88.26
2022-12-23T07:09:45.739Z,88.75
2022-12-23T07:12:12.315Z,88.47
2022-12-23T07:14:38.933Z,88.03
2022-12-23T07:17:05.745Z,88.77
2022-12-23T07:19:32.412Z,88.98
2022-12-23T07:21:59.066Z,88.63
2022-12-23T07:24:25.661Z,88.62
2022-12-23T07:26:52.335Z,88.67
2022-12-23T07:29:18.936Z,89.03
2022-12-23T07:31:45.692Z,89.22
2022-12-23T07:34:12.518Z,89.36
2022-12-23T07:36:39.218Z,89.40
2022-12-23T07:39:05.948Z,89.50
2022-12-23T07:41:32.593Z,89.70
2022-12-23T07:43:59.271Z,89.28
2022-12-23T07:46:26.168Z,89.63
2022-12-23T07:48:52.902Z,89.53
2022-12-23T07:51:19.498Z,89.65
2022-12-23T07:53:50.419Z,89.55
2022-12-23T07:56:17.779Z,90.00
2022-12-23T07:58:49.044Z,89.33
2022-12-23T08:01:16.265Z,89.47
2022-12-23T08:03:43.209Z,89.72
2022-12-23T08:06:12.997Z,90.38
2022-12-23T08:08:40.999Z,90.29
2022-12-23T08:11:09.841Z,90.08
2022-12-23T08:13:38.932Z,89.01
2022-12-23T08:16:07.296Z,88.66
2022-12-23T08:18:36.934Z,89.62
2022-12-23T08:21:06.549Z,89.86
2022-12-23T08:23:33.996Z,89.79
2022-12-23T08:26:09.400Z,89.06
2022-12-23T08:28:37.757Z,89.57
2022-12-23T08:31:13.759Z,88.51
2022-12-23T08:33:42.373Z,88.86
2022-12-23T08:36:16.287Z,88.94
2022-12-23T08:38:47.793Z,88.75
2022-12-23T08:41:18.705Z,88.93
2022-12-23T08:43:45.750Z,88.63
2022-12-23T08:46:12.460Z,88.58
2022-12-23T08:48:43.713Z,88.33
2022-12-23T08:51:16.802Z,88.21
2022-12-23T08:53:43.513Z,87.96
2022-12-23T08:56:13.192Z,88.68
2022-12-23T08:58:41.758Z,88.31
2022-12-23T09:01:11.507Z,87.08
2022-12-23T09:03:38.843Z,86.67
2022-12-23T09:06:11.094Z,88.27
2022-12-23T09:08:38.089Z,87.73
2022-12-23T09:11:05.307Z,87.57
2022-12-23T09:13:35.660Z,88.81
2022-12-23T09:16:03.485Z,89.29
2022-12-23T09:18:30.215Z,89.47
2022-12-23T09:21:06.156Z,89.63
2022-12-23T09:23:33.779Z,89.96
2022-12-23T09:26:00.531Z,90.30
2022-12-23T09:28:27.401Z,89.16
2022-12-23T09:30:54.041Z,88.52
2022-12-23T09:33:20.694Z,88.39
2022-12-23T09:35:47.410Z,88.99
2022-12-23T09:38:14.018Z,89.02
2022-12-23T09:40:42.348Z,89.75
2022-12-23T09:43:30.804Z,89.42
2022-12-23T09:46:16.114Z,87.86
2022-12-23T09:49:00.445Z,86.91
2022-12-23T09:51:27.968Z,88.19
2022-12-23T09:54:16.837Z,88.73
2022-12-23T09:56:52.013Z,88.39
2022-12-23T09:59:46.357Z,86.80
2022-12-23T10:02:51.412Z,85.39
2022-12-23T10:05:43.943Z,84.95
2022-12-23T10:08:15.909Z,84.72
2022-12-23T10:10:44.761Z,85.61
2022-12-23T10:13:49.715Z,85.87
2022-12-23T10:16:24.232Z,86.11
2022-12-23T10:19:01.738Z,86.29
2022-12-23T10:21:50.393Z,85.76
2022-12-23T10:24:21.065Z,86.99
2022-12-23T10:26:57.005Z,87.75
2022-12-23T10:29:30.171Z,87.48
2022-12-23T10:31:56.868Z,87.44
2022-12-23T10:34:39.704Z,87.82
2022-12-23T10:37:17.593Z,88.18
2022-12-23T10:40:07.547Z,87.54
2022-12-23T10:42:42.942Z,87.42
2022-12-23T10:45:22.449Z,87.54
2022-12-23T10:48:12.017Z,87.60
2022-12-23T10:50:49.743Z,87.71
2022-12-23T10:53:38.299Z,87.75
2022-12-23T10:56:06.908Z,87.94
2022-12-23T10:58:38.407Z,86.81
2022-12-23T11:01:14.972Z,87.69
2022-12-23T11:04:00.798Z,87.21
2022-12-23T11:06:33.122Z,86.89
2022-12-23T11:09:03.299Z,87.42
2022-12-23T11:11:55.891Z,87.96
2022-12-23T11:14:36.138Z,88.06
2022-12-23T11:17:05.058Z,88.01
2022-12-23T11:19:31.868Z,88.06
2022-12-23T11:22:00.331Z,87.52
2022-12-23T11:24:35.335Z,86.84
2022-12-23T11:27:07.374Z,85.64
2022-12-23T11:29:40.028Z,84.79
2022-12-23T11:32:21.212Z,84.76
2022-12-23T11:34:48.330Z,85.44
2022-12-23T11:37:42.189Z,85.81
2022-12-23T11:40:37.947Z,86.61
2022-12-23T11:43:11.645Z,86.21
2022-12-23T11:45:38.749Z,86.13
2022-12-23T11:48:06.883Z,85.03
2022-12-23T11:50:40.078Z,84.61
2022-12-23T11:53:09.593Z,84.54
2022-12-23T11:55:39.674Z,84.22
2022-12-23T11:58:16.736Z,84.69
2022-12-23T12:00:55.495Z,84.50
2022-12-23T12:03:28.024Z,84.44
2022-12-23T12:06:05.830Z,83.95
2022-12-23T12:08:40.473Z,83.84
2022-12-23T12:11:18.548Z,82.94
2022-12-23T12:13:50.559Z,83.13
2022-12-23T12:16:24.346Z,82.68
2022-12-23T12:18:55.651Z,82.56
2022-12-23T12:21:30.499Z,82.27
2022-12-23T12:24:20.060Z,82.21
2022-12-23T12:26:52.466Z,82.09
2022-12-23T12:29:31.488Z,81.16
2022-12-23T12:32:00.391Z,80.72
2022-12-23T12:34:47.885Z,80.60
2022-12-23T12:37:29.763Z,80.73
2022-12-23T12:40:09.475Z,81.26
2022-12-23T12:42:39.181Z,80.56
2022-12-23T12:45:05.775Z,80.12
2022-12-23T12:47:53.735Z,79.80
2022-12-23T12:50:29.373Z,80.42
2022-12-23T12:53:02.112Z,79.92
2022-12-23T12:55:33.583Z,79.83
2022-12-23T12:58:02.802Z,79.30
2022-12-23T13:00:39.349Z,79.49
2022-12-23T13:03:14.860Z,79.10
2022-12-23T13:05:55.302Z,78.65
2022-12-23T13:08:33.969Z,80.80
2022-12-23T13:11:16.848Z,82.26
2022-12-23T13:13:58.253Z,81.96
2022-12-23T13:16:50.000Z,82.36
2022-12-23T13:19:34.586Z,82.96
2022-12-23T13:22:13.295Z,83.90
2022-12-23T13:25:01.829Z,84.20
2022-12-23T13:27:35.392Z,84.03
2022-12-23T13:30:14.076Z,83.95
2022-12-23T13:32:55.940Z,83.40
2022-12-23T13:36:05.260Z,82.36
2022-12-23T13:39:20.483Z,81.64
2022-12-23T13:41:51.669Z,81.28
2022-12-23T13:44:20.645Z,80.76
2022-12-23T13:47:09.155Z,80.57
2022-12-23T13:49:57.283Z,80.30
2022-12-23T13:52:43.821Z,80.27
2022-12-23T13:55:16.186Z,80.05
2022-12-23T13:58:09.452Z,79.86
2022-12-23T14:00:36.617Z,79.50
2022-12-23T14:03:03.513Z,80.11
2022-12-23T14:05:45.442Z,80.53
2022-12-23T14:08:21.206Z,79.77
2022-12-23T14:11:12.744Z,79.30
2022-12-23T14:13:51.523Z,79.62
2022-12-23T14:16:52.184Z,79.85
2022-12-23T14:19:18.745Z,78.51
2022-12-23T14:22:09.465Z,79.08
2022-12-23T14:24:54.861Z,78.81
2022-12-23T14:27:50.365Z,77.95
2022-12-23T14:30:19.687Z,77.78
2022-12-23T14:32:52.741Z,77.54
2022-12-23T14:35:25.363Z,77.32
2022-12-23T14:38:14.971Z,77.47
2022-12-23T14:41:00.180Z,77.69
2022-12-23T14:43:51.381Z,77.41
2022-12-23T14:46:50.239Z,77.03
2022-12-23T14:49:39.721Z,76.83
2022-12-23T14:52:45.417Z,76.63
2022-12-23T14:55:32.938Z,76.11
2022-12-23T14:58:17.730Z,76.57
2022-12-23T15:00:52.434Z,75.70
2022-12-23T15:03:20.339Z,77.78
2022-12-23T15:05:47.342Z,77.06
2022-12-23T15:08:39.242Z,77.56
2022-12-23T15:11:09.479Z,77.31
2022-12-23T15:13:37.276Z,77.59
2022-12-23T15:16:04.040Z,77.19
2022-12-23T15:18:30.782Z,77.60
2022-12-23T15:21:10.192Z,78.55
2022-12-23T15:23:36.850Z,78.01
2022-12-23T15:26:04.739Z,78.87
2022-12-23T15:28:41.256Z,78.94
2022-12-23T15:31:25.845Z,79.10
2022-12-23T15:34:13.329Z,78.75
2022-12-23T15:36:43.890Z,78.62
2022-12-23T15:39:27.950Z,78.16
2022-12-23T15:41:54.682Z,77.54
2022-12-23T15:44:24.555Z,78.43
2022-12-23T15:46:52.156Z,78.69
2022-12-23T15:49:21.569Z,78.14
2022-12-23T15:52:12.439Z,77.70
2022-12-23T15:54:46.232Z,77.18
2022-12-23T15:57:19.172Z,77.98
2022-12-23T15:59:46.165Z,78.64
2022-12-23T16:02:59.772Z,77.48
2022-12-23T16:05:13.451Z,77.81
2022-12-23T16:07:42.185Z,78.68
2022-12-23T16:10:16.252Z,78.31
2022-12-23T16:12:43.799Z,77.85
2022-12-23T16:15:31.984Z,77.54
2022-12-23T16:18:19.878Z,78.02
2022-12-23T16:20:57.579Z,77.25
2022-12-23T16:23:29.329Z,76.87
2022-12-23T16:25:59.072Z,77.59
2022-12-23T16:28:38.592Z,78.05
2022-12-23T16:31:07.725Z,78.64
2022-12-23T16:33:34.926Z,78.82
2022-12-23T16:36:32.426Z,78.85
2022-12-23T16:39:25.026Z,79.34
2022-12-23T16:41:51.664Z,79.36
2022-12-23T16:44:19.356Z,79.15
2022-12-23T16:46:49.532Z,79.22
2022-12-23T16:49:19.944Z,78.64
2022-12-23T16:51:47.117Z,78.94
2022-12-23T16:54:17.166Z,78.68
2022-12-23T16:56:46.546Z,78.17
2022-12-23T16:59:14.466Z,78.07
2022-12-23T17:01:44.504Z,77.99
2022-12-23T17:04:11.458Z,78.26
2022-12-23T17:06:38.721Z,78.35
2022-12-23T17:09:07.877Z,78.40
2022-12-23T17:11:41.512Z,78.40
2022-12-23T17:14:15.889Z,78.33
2022-12-23T17:16:43.325Z,78.26
2022-12-23T17:19:09.976Z,78.08
2022-12-23T17:21:39.043Z,77.64
2022-12-23T17:24:23.589Z,77.77
2022-12-23T17:26:51.101Z,78.13
2022-12-23T17:29:18.038Z,78.85
2022-12-23T17:31:45.542Z,79.14
2022-12-23T17:34:17.831Z,80.44
2022-12-23T17:36:49.625Z,80.66
2022-12-23T17:39:17.211Z,81.88
2022-12-23T17:41:43.934Z,82.92
2022-12-23T17:44:14.253Z,83.36
2022-12-23T17:46:41.120Z,84.14
2022-12-23T17:49:09.010Z,83.57
2022-12-23T17:51:35.985Z,83.56
2022-12-23T17:54:04.633Z,82.60
2022-12-23T17:56:31.428Z,82.49
2022-12-23T17:58:58.144Z,82.33
2022-12-23T18:01:27.886Z,82.68
2022-12-23T18:03:56.018Z,81.37
2022-12-23T18:06:24.068Z,82.01
2022-12-23T18:08:50.887Z,83.03
2022-12-23T18:11:42.659Z,82.77
2022-12-23T18:14:23.302Z,83.08
2022-12-23T18:16:50.092Z,83.35
2022-12-23T18:19:19.430Z,83.52
2022-12-23T18:21:46.722Z,82.75
2022-12-23T18:24:13.413Z,81.99
2022-12-23T18:26:40.163Z,82.76
2022-12-23T18:29:06.856Z,83.40
2022-12-23T18:31:33.699Z,83.62
2022-12-23T18:34:00.346Z,84.28
2022-12-23T18:36:35.840Z,84.73
2022-12-23T18:39:02.513Z,82.89
2022-12-23T18:41:29.149Z,84.22
2022-12-23T18:43:56.478Z,83.12
2022-12-23T18:46:23.248Z,82.09
2022-12-23T18:48:51.420Z,82.73
2022-12-23T18:51:20.204Z,84.27
2022-12-23T18:53:48.222Z,84.41
2022-12-23T18:56:17.188Z,84.75
2022-12-23T18:58:43.850Z,84.69
2022-12-23T19:01:15.482Z,84.48
2022-12-23T19:03:42.930Z,83.65
2022-12-23T19:06:13.355Z,84.90
2022-12-23T19:08:41.410Z,84.96
2022-12-23T19:11:17.271Z,85.53
2022-12-23T19:13:44.410Z,85.29
2022-12-23T19:16:16.241Z,85.28
2022-12-23T19:18:43.163Z,84.50
2022-12-23T19:21:09.894Z,84.06
2022-12-23T19:23:37.237Z,84.40
2022-12-23T19:26:06.219Z,85.08
2022-12-23T19:28:33.655Z,84.96
2022-12-23T19:31:00.544Z,85.99
2022-12-23T19:33:27.278Z,85.75
2022-12-23T19:35:53.956Z,85.74
2022-12-23T19:38:20.584Z,85.88
2022-12-23T19:40:56.555Z,84.33
2022-12-23T19:43:23.263Z,85.21
2022-12-23T19:46:00.768Z,85.89
2022-12-23T19:48:28.126Z,86.17
2022-12-23T19:51:21.221Z,85.73
2022-12-23T19:53:51.013Z,84.76
2022-12-23T19:56:21.972Z,85.38
2022-12-23T19:58:49.601Z,85.64
2022-12-23T20:01:25.164Z,85.58
2022-12-23T20:03:54.001Z,85.20
2022-12-23T20:06:28.036Z,84.60
2022-12-23T20:09:00.306Z,85.65
2022-12-23T20:11:30.618Z,85.93
2022-12-23T20:13:58.520Z,86.11
2022-12-23T20:16:25.804Z,85.73
2022-12-23T20:18:53.230Z,85.33
2022-12-23T20:21:20.297Z,83.57
2022-12-23T20:23:46.996Z,84.64
2022-12-23T20:26:14.723Z,84.52
2022-12-23T20:28:42.152Z,84.19
2022-12-23T20:31:10.028Z,83.50
2022-12-23T20:33:38.594Z,83.82
2022-12-23T20:36:10.265Z,83.14
2022-12-23T20:38:39.072Z,82.59
2022-12-23T20:41:12.666Z,82.27
2022-12-23T20:43:40.120Z,82.01
2022-12-23T20:46:10.362Z,82.63
2022-12-23T20:48:37.498Z,82.16
2022-12-23T20:51:12.824Z,81.13
2022-12-23T20:53:39.553Z,82.31
2022-12-23T20:56:09.107Z,81.81
2022-12-23T20:58:57.855Z,81.53
2022-12-23T21:01:33.614Z,81.01
2022-12-23T21:04:02.284Z,81.12
2022-12-23T21:06:30.829Z,81.10
2022-12-23T21:08:59.733Z,81.13
2022-12-23T21:11:31.029Z,80.74
2022-12-23T21:14:06.221Z,80.44
2022-12-23T21:16:35.732Z,80.69
2022-12-23T21:19:03.194Z,80.38
2022-12-23T21:21:31.282Z,79.70
2022-12-23T21:24:01.523Z,80.34
2022-12-23T21:26:29.901Z,80.35
2022-12-23T21:28:59.490Z,80.11
2022-12-23T21:31:28.205Z,78.42
2022-12-23T21:33:55.599Z,79.18
2022-12-23T21:36:26.079Z,80.18
2022-12-23T21:38:52.948Z,79.38
2022-12-23T21:41:23.387Z,80.66
2022-12-23T21:43:50.562Z,82.00
2022-12-23T21:46:21.681Z,82.10
2022-12-23T21:48:49.786Z,82.64
2022-12-23T21:51:19.461Z,83.18
2022-12-23T21:53:48.313Z,83.79
2022-12-23T21:56:18.974Z,82.86
2022-12-23T21:58:46.755Z,83.08
2022-12-23T22:01:19.354Z,82.11
2022-12-23T22:03:48.449Z,82.87
2022-12-23T22:06:37.330Z,82.07
2022-12-23T22:09:06.320Z,81.70
2022-12-23T22:11:35.369Z,82.04
2022-12-23T22:14:04.053Z,82.66
2022-12-23T22:16:31.476Z,82.26
2022-12-23T22:19:00.055Z,81.66
2022-12-23T22:21:28.878Z,81.69
2022-12-23T22:23:56.634Z,82.32
2022-12-23T22:26:26.360Z,81.77
2022-12-23T22:28:55.681Z,82.32
2022-12-23T22:31:34.758Z,82.03
2022-12-23T22:34:02.005Z,81.33
2022-12-23T22:36:29.031Z,81.67
2022-12-23T22:38:57.765Z,81.70
2022-12-23T22:41:27.939Z,81.93
2022-12-23T22:43:55.281Z,82.46
2022-12-23T22:46:22.783Z,82.21
2022-12-23T22:48:49.821Z,81.45
2022-12-23T22:51:22.413Z,81.11
2022-12-23T22:53:49.457Z,80.68
2022-12-23T22:56:18.237Z,81.08
2022-12-23T22:58:45.252Z,80.54
2022-12-23T23:01:28.064Z,80.55
2022-12-23T23:03:59.003Z,81.53
2022-12-23T23:06:30.534Z,81.32
2022-12-23T23:08:58.082Z,81.62
2022-12-23T23:11:26.599Z,82.49
2022-12-23T23:13:54.071Z,82.58
2022-12-23T23:16:21.266Z,82.72
2022-12-23T23:18:48.044Z,82.64
2022-12-23T23:21:15.241Z,82.28
2022-12-23T23:23:41.973Z,82.66
2022-12-23T23:26:10.322Z,82.84
2022-12-23T23:28:39.420Z,82.59
2022-12-23T23:31:40.603Z,82.95
2022-12-23T23:33:54.025Z,83.66
2022-12-23T23:36:20.838Z,83.65
2022-12-23T23:38:47.572Z,83.78
2022-12-23T23:41:18.908Z,85.26
2022-12-23T23:43:49.419Z,85.75
2022-12-23T23:46:16.173Z,84.96
2022-12-23T23:48:42.944Z,85.48
2022-12-23T23:51:09.653Z,85.54
2022-12-23T23:53:36.314Z,86.55
2022-12-23T23:56:07.265Z,86.32
2022-12-23T23:58:35.347Z,85.52
